Mijn Webcam  Mijn Webcam


webcam richting noord-oost  webcam facing north-east


Regen radar Meer informatie rain snow radar


Bezoek onze andere website:

Template documentation
and downloads

HWS Template - cumulus versie

HWS Template - WU versie

And another site



METAR rapporten vliegvelden

   
EHGG - Groningen/Eelde, Netherlands
Afstand tot: Z 20 km
Gewijzigd: 19-11-2019 04:25
Light, Grotendeels bewolkt  
Light, Grotendeels bewolkt  
   Wind: Westen 13 km/h
Wind: Westen 13 km/h
Temperatuur: 7°C
Voelt als: 4°C
Dauwpunt: 6°C
Vochtigheid: 93%
Barometer: 1008 hPa
Bewolking: Grotendeels bewolkt
Zicht: meer dan 10 km
Bewolking: Gedeeltelijk bewolkt 640.1 m,
Grotendeels bewolkt 792.5 m,
Grotendeels bewolkt 1066.8 m
EHGG 190325Z AUTO 28007KT 240V310 9999 -UP SCT021 BKN026 BKN035 07/06 Q1008
EHMA - Awg-1 Sea, Netherlands
Afstand tot: WNW 45 km
Gewijzigd: 19-11-2019 04:25
Grotendeels bewolkt  
Grotendeels bewolkt  
   Wind: NW 55.6 km/h
Wind: NW 55.6 km/h
Temperatuur: 9°C
Voelt als: 4°C
Dauwpunt: 5°C
Vochtigheid: 76%
Barometer: 1007 hPa
Bewolking: Grotendeels bewolkt
Zicht: meer dan 10 km
Bewolking: Licht bewolkt 457.2 m,
Gedeeltelijk bewolkt 1097.3 m,
Grotendeels bewolkt 1249.7 m
EHMA 190325Z AUTO 32030KT 9999 FEW015CB SCT036 BKN041 09/05 Q1007 REDZ W///H///
 

Script ontwikkeld door  Saratoga-weather.org Aangepast voor de template door  Weerstation Leuven

U vindt ons ook hier:

Het Weer Aktueel

UK Metoffice

European Weather Network

WeatherCloud

Weather Underground

Benelux Weer Netwerk

AWEKAS

WeatherlinkIP

HAMweather, WeatherForYou, PWS Weather

Apparatuur in gebruik:

Weerstation
Davis VP2

Weerprogramma
Cumulus

Davis VP2

Cumulus